createdAt,value
2023-03-21T00:01:32.028Z,10.01
2023-03-21T00:03:58.958Z,10.27
2023-03-21T00:06:25.678Z,10.27
2023-03-21T00:08:52.221Z,10.17
2023-03-21T00:11:19.144Z,10.25
2023-03-21T00:13:45.688Z,10.58
2023-03-21T00:16:26.342Z,10.87
2023-03-21T00:18:56.313Z,10.54
2023-03-21T00:22:05.446Z,10.44
2023-03-21T00:24:19.049Z,10.43
2023-03-21T00:26:46.177Z,10.60
2023-03-21T00:29:12.850Z,10.77
2023-03-21T00:31:39.990Z,10.48
2023-03-21T00:34:06.513Z,10.62
2023-03-21T00:36:33.232Z,10.44
2023-03-21T00:39:01.054Z,10.53
2023-03-21T00:41:41.362Z,10.26
2023-03-21T00:44:14.380Z,10.06
2023-03-21T00:46:54.543Z,10.02
2023-03-21T00:49:27.882Z,9.66
2023-03-21T00:51:55.243Z,9.60
2023-03-21T00:54:23.760Z,9.47
2023-03-21T00:56:50.413Z,9.34
2023-03-21T00:59:17.329Z,9.52
2023-03-21T01:01:46.768Z,9.72
2023-03-21T01:04:14.946Z,9.53
2023-03-21T01:06:43.341Z,9.24
2023-03-21T01:09:16.689Z,9.34
2023-03-21T01:11:43.931Z,9.63
2023-03-21T01:14:22.105Z,9.70
2023-03-21T01:16:51.460Z,10.08
2023-03-21T01:19:50.692Z,9.95
2023-03-21T01:22:07.036Z,10.01
2023-03-21T01:24:35.611Z,10.07
2023-03-21T01:27:04.298Z,10.44
2023-03-21T01:29:31.763Z,10.57
2023-03-21T01:31:58.379Z,10.24
2023-03-21T01:34:24.934Z,9.85
2023-03-21T01:36:52.211Z,10.14
2023-03-21T01:39:18.746Z,9.65
2023-03-21T01:41:45.485Z,9.76
2023-03-21T01:44:17.538Z,9.81
2023-03-21T01:47:00.416Z,10.17
2023-03-21T01:49:38.814Z,9.91
2023-03-21T01:52:14.046Z,10.04
2023-03-21T01:54:43.413Z,10.10
2023-03-21T01:57:16.614Z,10.44
2023-03-21T01:59:46.797Z,10.38
2023-03-21T02:02:20.837Z,10.55
2023-03-21T02:04:51.232Z,10.08
2023-03-21T02:07:35.788Z,9.81
2023-03-21T02:10:14.288Z,9.47
2023-03-21T02:12:41.239Z,9.17
2023-03-21T02:15:09.070Z,9.21
2023-03-21T02:18:02.175Z,8.67
2023-03-21T02:20:54.414Z,9.07
2023-03-21T02:23:58.837Z,9.07
2023-03-21T02:27:03.638Z,9.19
2023-03-21T02:29:45.944Z,8.94
2023-03-21T02:32:31.482Z,9.02
2023-03-21T02:35:09.365Z,8.64
2023-03-21T02:37:44.668Z,8.93
2023-03-21T02:40:16.213Z,9.00
2023-03-21T02:43:22.210Z,8.70
2023-03-21T02:45:55.149Z,8.81
2023-03-21T02:48:49.862Z,8.96
2023-03-21T02:51:19.942Z,9.10
2023-03-21T02:54:13.007Z,9.06
2023-03-21T02:56:40.519Z,8.85
2023-03-21T02:59:08.835Z,8.53
2023-03-21T03:01:35.591Z,8.77
2023-03-21T03:04:02.788Z,8.75
2023-03-21T03:06:44.238Z,8.91
2023-03-21T03:09:16.970Z,8.82
2023-03-21T03:11:44.709Z,8.91
2023-03-21T03:17:28.864Z,8.64
2023-03-21T03:20:16.470Z,8.97
2023-03-21T03:22:48.256Z,8.85
2023-03-21T03:25:29.790Z,8.89
2023-03-21T03:28:05.639Z,9.40
2023-03-21T03:30:43.060Z,8.99
2023-03-21T03:33:17.193Z,9.13
2023-03-21T03:35:48.252Z,8.79
2023-03-21T03:38:22.207Z,8.27
2023-03-21T03:40:53.864Z,8.35
2023-03-21T03:43:30.812Z,7.87
2023-03-21T03:46:05.013Z,7.89
2023-03-21T03:48:46.551Z,8.19
2023-03-21T03:51:32.607Z,7.86
2023-03-21T03:54:04.617Z,7.75
2023-03-21T03:56:31.797Z,7.64
2023-03-21T03:58:58.476Z,8.17
2023-03-21T04:01:25.114Z,7.72
2023-03-21T04:03:58.600Z,7.53
2023-03-21T04:06:33.830Z,7.89
2023-03-21T04:09:03.437Z,7.75
2023-03-21T04:11:32.103Z,8.03
2023-03-21T04:13:58.959Z,8.25
2023-03-21T04:16:25.536Z,8.50
2023-03-21T04:18:52.525Z,7.91
2023-03-21T04:21:19.159Z,7.65
2023-03-21T04:23:45.970Z,7.83
2023-03-21T04:26:12.510Z,7.77
2023-03-21T04:28:39.906Z,8.34
2023-03-21T04:31:24.130Z,8.00
2023-03-21T04:33:52.249Z,8.07
2023-03-21T04:36:27.518Z,7.78
2023-03-21T04:38:55.077Z,7.79
2023-03-21T04:41:21.638Z,7.88
2023-03-21T04:43:48.468Z,8.22
2023-03-21T04:46:15.636Z,8.18
2023-03-21T04:48:42.294Z,8.36
2023-03-21T04:51:08.931Z,8.71
2023-03-21T04:53:35.885Z,9.03
2023-03-21T04:56:02.537Z,9.07
2023-03-21T04:58:30.513Z,8.88
2023-03-21T05:00:57.680Z,8.72
2023-03-21T05:03:25.215Z,8.83
2023-03-21T05:05:51.745Z,8.75
2023-03-21T05:08:18.694Z,8.74
2023-03-21T05:10:45.759Z,8.42
2023-03-21T05:13:12.586Z,8.44
2023-03-21T05:15:39.395Z,8.37
2023-03-21T05:18:10.862Z,8.31
2023-03-21T05:20:42.938Z,8.12
2023-03-21T05:23:11.807Z,8.14
2023-03-21T05:25:40.122Z,8.32
2023-03-21T05:28:07.922Z,8.46
2023-03-21T05:30:34.821Z,7.83
2023-03-21T05:33:01.473Z,7.59
2023-03-21T05:35:28.170Z,7.94
2023-03-21T05:37:54.854Z,8.04
2023-03-21T05:40:21.599Z,7.96
2023-03-21T05:42:48.794Z,7.87
2023-03-21T05:45:16.387Z,7.75
2023-03-21T05:47:42.978Z,7.47
2023-03-21T05:50:11.698Z,7.80
2023-03-21T05:52:38.218Z,8.30
2023-03-21T05:55:05.420Z,8.17
2023-03-21T05:57:35.234Z,8.17
2023-03-21T06:00:02.227Z,8.50
2023-03-21T06:02:28.812Z,8.92
2023-03-21T06:04:56.707Z,8.68
2023-03-21T06:07:23.347Z,8.21
2023-03-21T06:09:49.932Z,8.45
2023-03-21T06:12:16.687Z,8.59
2023-03-21T06:14:43.202Z,8.80
2023-03-21T06:17:09.816Z,8.94
2023-03-21T06:19:36.541Z,9.23
2023-03-21T06:22:03.141Z,9.44
2023-03-21T06:24:29.653Z,9.31
2023-03-21T06:26:56.297Z,9.03
2023-03-21T06:29:22.936Z,9.08
2023-03-21T06:31:49.578Z,9.21
2023-03-21T06:34:16.321Z,9.54
2023-03-21T06:36:44.767Z,9.88
2023-03-21T06:39:11.448Z,10.03
2023-03-21T06:41:38.377Z,9.58
2023-03-21T06:44:05.195Z,9.33
2023-03-21T06:46:31.766Z,9.73
2023-03-21T06:48:58.519Z,10.07
2023-03-21T06:51:25.090Z,9.82
2023-03-21T06:53:51.629Z,9.59
2023-03-21T06:56:18.392Z,9.14
2023-03-21T06:58:44.896Z,9.13
2023-03-21T07:01:11.507Z,9.20
2023-03-21T07:03:38.166Z,9.62
2023-03-21T07:06:13.504Z,9.88
2023-03-21T07:08:41.355Z,9.87
2023-03-21T07:11:09.324Z,9.84
2023-03-21T07:13:36.074Z,10.55
2023-03-21T07:16:02.995Z,10.60
2023-03-21T07:18:30.957Z,10.40
2023-03-21T07:20:57.739Z,10.13
2023-03-21T07:23:27.746Z,10.22
2023-03-21T07:25:55.113Z,10.42
2023-03-21T07:28:22.939Z,10.52
2023-03-21T07:30:55.476Z,10.88
2023-03-21T07:33:23.219Z,11.15
2023-03-21T07:35:50.984Z,11.43
2023-03-21T07:38:18.251Z,11.06
2023-03-21T07:40:46.494Z,11.01
2023-03-21T07:43:13.931Z,11.14
2023-03-21T07:45:42.787Z,11.19
2023-03-21T07:48:12.890Z,11.10
2023-03-21T07:50:42.334Z,11.16
2023-03-21T07:53:09.124Z,11.29
2023-03-21T07:55:36.344Z,11.66
2023-03-21T07:58:04.222Z,11.52
2023-03-21T08:00:31.179Z,11.76
2023-03-21T08:02:59.245Z,12.29
2023-03-21T08:05:45.112Z,12.13
2023-03-21T08:08:12.289Z,11.98
2023-03-21T08:10:38.973Z,11.65
2023-03-21T08:13:05.757Z,12.07
2023-03-21T08:15:32.493Z,12.23
2023-03-21T08:18:00.045Z,12.61
2023-03-21T08:20:27.613Z,12.87
2023-03-21T08:22:54.570Z,12.61
2023-03-21T08:25:22.048Z,12.75
2023-03-21T08:27:49.703Z,12.65
2023-03-21T08:30:19.171Z,13.06
2023-03-21T08:32:45.995Z,13.12
2023-03-21T08:35:16.112Z,13.16
2023-03-21T08:37:43.733Z,13.52
2023-03-21T08:40:18.691Z,13.38
2023-03-21T08:42:46.700Z,13.45
2023-03-21T08:45:15.093Z,13.47
2023-03-21T08:47:42.122Z,13.77
2023-03-21T08:50:12.411Z,13.94
2023-03-21T08:52:38.998Z,13.62
2023-03-21T08:55:06.048Z,13.64
2023-03-21T08:57:32.644Z,13.54
2023-03-21T08:59:59.313Z,13.53
2023-03-21T09:02:26.082Z,13.68
2023-03-21T09:04:59.010Z,13.85
2023-03-21T09:07:26.477Z,14.10
2023-03-21T09:10:08.177Z,14.39
2023-03-21T09:12:41.255Z,14.06
2023-03-21T09:15:09.977Z,14.19
2023-03-21T09:17:36.527Z,14.70
2023-03-21T09:20:11.561Z,14.51
2023-03-21T09:22:41.293Z,14.52
2023-03-21T09:25:11.369Z,14.75
2023-03-21T09:27:38.030Z,14.57
2023-03-21T09:30:06.162Z,14.39
2023-03-21T09:32:34.075Z,14.41
2023-03-21T09:35:00.860Z,14.28
2023-03-21T09:37:27.800Z,14.59
2023-03-21T09:39:56.741Z,14.65
2023-03-21T09:42:38.865Z,14.65
2023-03-21T09:45:41.168Z,14.44
2023-03-21T09:48:22.657Z,14.77
2023-03-21T09:50:49.731Z,14.36
2023-03-21T09:53:24.593Z,14.73
2023-03-21T09:55:54.013Z,14.95
2023-03-21T09:58:33.391Z,15.31
2023-03-21T10:01:07.525Z,15.33
2023-03-21T10:03:35.339Z,15.39
2023-03-21T10:06:08.378Z,15.45
2023-03-21T10:08:39.392Z,15.62
2023-03-21T10:11:14.569Z,15.73
2023-03-21T10:14:01.380Z,15.75
2023-03-21T10:16:48.256Z,15.91
2023-03-21T10:19:17.366Z,16.21
2023-03-21T10:22:00.238Z,16.04
2023-03-21T10:24:29.531Z,16.18
2023-03-21T10:26:56.954Z,16.05
2023-03-21T10:29:29.142Z,16.33
2023-03-21T10:31:56.140Z,16.50
2023-03-21T10:34:35.289Z,16.60
2023-03-21T10:37:03.755Z,16.75
2023-03-21T10:39:45.744Z,16.60
2023-03-21T10:42:24.844Z,16.85
2023-03-21T10:44:57.429Z,16.84
2023-03-21T10:47:34.903Z,16.43
2023-03-21T10:50:09.052Z,16.31
2023-03-21T10:52:38.712Z,16.42
2023-03-21T10:55:31.288Z,16.24
2023-03-21T10:58:18.884Z,16.33
2023-03-21T11:00:47.829Z,16.44
2023-03-21T11:03:47.041Z,16.67
2023-03-21T11:06:30.257Z,16.90
2023-03-21T11:09:00.835Z,17.13
2023-03-21T11:11:33.381Z,17.00
2023-03-21T11:14:07.007Z,17.03
2023-03-21T11:16:42.354Z,17.29
2023-03-21T11:19:19.165Z,17.34
2023-03-21T11:21:46.426Z,17.35
2023-03-21T11:24:16.589Z,17.40
2023-03-21T11:26:46.159Z,17.61
2023-03-21T11:29:37.251Z,17.64
2023-03-21T11:32:31.183Z,17.85
2023-03-21T11:35:00.636Z,17.77
2023-03-21T11:37:32.440Z,17.82
2023-03-21T11:40:23.278Z,18.06
2023-03-21T11:42:52.748Z,18.35
2023-03-21T11:45:25.491Z,18.45
2023-03-21T11:47:55.590Z,18.55
2023-03-21T11:50:32.669Z,18.60
2023-03-21T11:53:30.700Z,18.37
2023-03-21T11:56:06.654Z,18.56
2023-03-21T11:59:03.993Z,18.24
2023-03-21T12:01:47.158Z,17.60
2023-03-21T12:04:19.953Z,18.17
2023-03-21T12:07:04.901Z,18.62
2023-03-21T12:09:46.935Z,18.50
2023-03-21T12:12:38.373Z,18.47
2023-03-21T12:15:35.087Z,18.74
2023-03-21T12:18:26.825Z,18.67
2023-03-21T12:20:57.779Z,19.02
2023-03-21T12:23:39.466Z,19.07
2023-03-21T12:26:12.872Z,19.25
2023-03-21T12:28:48.128Z,19.56
2023-03-21T12:31:21.414Z,19.53
2023-03-21T12:33:59.664Z,19.46
2023-03-21T12:36:37.992Z,19.45
2023-03-21T12:39:10.341Z,19.35
2023-03-21T12:41:54.138Z,18.70
2023-03-21T12:44:23.849Z,18.91
2023-03-21T12:46:56.624Z,18.91
2023-03-21T12:49:34.532Z,19.25
2023-03-21T12:52:08.338Z,19.60
2023-03-21T12:54:46.859Z,19.70
2023-03-21T12:57:19.158Z,19.91
2023-03-21T12:59:54.922Z,19.94
2023-03-21T13:02:41.967Z,20.08
2023-03-21T13:05:23.910Z,20.20
2023-03-21T13:07:57.336Z,20.44
2023-03-21T13:10:24.341Z,20.36
2023-03-21T13:13:13.550Z,20.31
2023-03-21T13:15:52.630Z,20.20
2023-03-21T13:18:47.161Z,20.56
2023-03-21T13:21:35.847Z,20.35
2023-03-21T13:24:05.652Z,20.61
2023-03-21T13:26:38.068Z,20.70
2023-03-21T13:29:15.700Z,20.80
2023-03-21T13:31:52.082Z,20.81
2023-03-21T13:34:24.498Z,21.00
2023-03-21T13:36:52.692Z,20.91
2023-03-21T13:39:29.615Z,20.66
2023-03-21T13:42:03.639Z,20.78
2023-03-21T13:44:43.548Z,20.75
2023-03-21T13:47:51.884Z,20.79
2023-03-21T13:50:18.491Z,20.90
2023-03-21T13:53:03.527Z,20.89
2023-03-21T13:56:19.557Z,20.90
2023-03-21T13:58:46.570Z,20.90
2023-03-21T14:01:31.627Z,20.93
2023-03-21T14:04:09.494Z,20.89
2023-03-21T14:06:42.532Z,21.08
2023-03-21T14:09:14.967Z,21.05
2023-03-21T14:11:46.750Z,21.05
2023-03-21T14:14:13.534Z,21.17
2023-03-21T14:16:41.512Z,21.44
2023-03-21T14:19:12.034Z,21.34
2023-03-21T14:21:47.910Z,21.33
2023-03-21T14:24:16.851Z,21.40
2023-03-21T14:26:54.624Z,21.44
2023-03-21T14:29:33.741Z,21.33
2023-03-21T14:32:01.117Z,21.53
2023-03-21T14:34:31.499Z,21.32
2023-03-21T14:36:59.212Z,21.34
2023-03-21T14:39:33.283Z,21.44
2023-03-21T14:42:09.452Z,21.83
2023-03-21T14:44:53.970Z,21.82
2023-03-21T14:47:28.170Z,21.79
2023-03-21T14:49:57.021Z,21.63
2023-03-21T14:52:27.188Z,21.77
2023-03-21T14:54:55.008Z,21.80
2023-03-21T14:57:25.174Z,21.73
2023-03-21T14:59:54.204Z,21.91
2023-03-21T15:02:26.679Z,21.93
2023-03-21T15:04:56.463Z,21.89
2023-03-21T15:07:28.092Z,21.57
2023-03-21T15:09:56.663Z,21.25
2023-03-21T15:12:23.301Z,21.16
2023-03-21T15:14:52.387Z,21.28
2023-03-21T15:17:20.584Z,21.37
2023-03-21T15:19:47.226Z,21.30
2023-03-21T15:22:21.673Z,21.28
2023-03-21T15:24:53.304Z,21.41
2023-03-21T15:27:23.890Z,21.49
2023-03-21T15:29:56.581Z,21.37
2023-03-21T15:32:26.493Z,21.31
2023-03-21T15:34:56.472Z,21.38
2023-03-21T15:37:28.280Z,21.48
2023-03-21T15:40:09.978Z,21.54
2023-03-21T15:42:43.271Z,21.56
2023-03-21T15:45:26.264Z,21.39
2023-03-21T15:47:52.869Z,21.30
2023-03-21T15:50:36.605Z,21.11
2023-03-21T15:53:13.245Z,21.21
2023-03-21T15:56:16.507Z,20.97
2023-03-21T15:58:46.385Z,21.22
2023-03-21T16:01:17.930Z,21.03
2023-03-21T16:03:54.959Z,20.95
2023-03-21T16:06:33.705Z,20.97
2023-03-21T16:09:09.444Z,20.88
2023-03-21T16:11:40.519Z,20.65
2023-03-21T16:14:07.440Z,20.49
2023-03-21T16:16:34.119Z,20.43
2023-03-21T16:19:01.731Z,20.36
2023-03-21T16:21:31.139Z,20.25
2023-03-21T16:23:58.581Z,20.27
2023-03-21T16:26:35.967Z,20.22
2023-03-21T16:29:02.894Z,20.19
2023-03-21T16:31:31.659Z,19.98
2023-03-21T16:33:58.447Z,19.92
2023-03-21T16:36:28.957Z,20.02
2023-03-21T16:38:56.201Z,20.00
2023-03-21T16:41:25.550Z,20.12
2023-03-21T16:43:53.486Z,19.99
2023-03-21T16:46:23.335Z,20.05
2023-03-21T16:48:57.944Z,19.96
2023-03-21T16:51:30.547Z,19.99
2023-03-21T16:53:57.958Z,19.87
2023-03-21T16:56:40.494Z,19.43
2023-03-21T16:59:11.111Z,19.50
2023-03-21T17:01:40.342Z,19.30
2023-03-21T17:04:08.467Z,19.33
2023-03-21T17:06:44.779Z,19.00
2023-03-21T17:09:14.376Z,19.25
2023-03-21T17:11:41.673Z,19.21
2023-03-21T17:14:10.345Z,19.03
2023-03-21T17:16:40.404Z,18.90
2023-03-21T17:19:26.394Z,19.07
2023-03-21T17:21:53.114Z,18.67
2023-03-21T17:24:19.724Z,18.79
2023-03-21T17:26:46.329Z,18.76
2023-03-21T17:29:14.299Z,18.73
2023-03-21T17:31:41.201Z,18.85
2023-03-21T17:34:08.558Z,18.90
2023-03-21T17:36:41.303Z,18.68
2023-03-21T17:39:21.204Z,18.69
2023-03-21T17:41:47.842Z,18.60
2023-03-21T17:44:14.400Z,18.66
2023-03-21T17:46:41.194Z,18.71
2023-03-21T17:49:07.934Z,18.88
2023-03-21T17:51:34.637Z,18.83
2023-03-21T17:54:01.312Z,18.73
2023-03-21T17:56:31.190Z,18.61
2023-03-21T17:59:00.061Z,18.60
2023-03-21T18:01:27.230Z,18.59
2023-03-21T18:03:56.723Z,18.69
2023-03-21T18:06:25.584Z,18.63
2023-03-21T18:08:53.650Z,18.58
2023-03-21T18:11:21.976Z,18.40
2023-03-21T18:13:48.854Z,18.33
2023-03-21T18:16:18.505Z,18.39
2023-03-21T18:18:46.716Z,18.41
2023-03-21T18:21:14.590Z,18.36
2023-03-21T18:23:41.443Z,18.58
2023-03-21T18:26:09.800Z,18.47
2023-03-21T18:28:39.652Z,18.35
2023-03-21T18:31:14.573Z,18.21
2023-03-21T18:33:45.254Z,18.25
2023-03-21T18:36:14.827Z,18.08
2023-03-21T18:38:42.192Z,18.03
2023-03-21T18:41:08.901Z,18.04
2023-03-21T18:46:23.738Z,18.01
2023-03-21T18:48:51.795Z,17.95
2023-03-21T18:51:19.345Z,17.98
2023-03-21T18:53:46.324Z,17.99
2023-03-21T18:56:40.782Z,17.93
2023-03-21T18:59:01.204Z,17.77
2023-03-21T19:01:27.949Z,17.85
2023-03-21T19:04:20.059Z,17.43
2023-03-21T19:06:47.681Z,17.16
2023-03-21T19:09:14.744Z,17.26
2023-03-21T19:11:44.668Z,17.27
2023-03-21T19:14:12.932Z,17.44
2023-03-21T19:17:14.953Z,17.49
2023-03-21T19:19:27.794Z,17.46
2023-03-21T19:21:54.414Z,17.57
2023-03-21T19:24:27.748Z,17.58
2023-03-21T19:26:55.632Z,17.52
2023-03-21T19:29:22.355Z,17.40
2023-03-21T19:31:51.144Z,17.36
2023-03-21T19:34:19.208Z,17.13
2023-03-21T19:36:51.541Z,16.98
2023-03-21T19:39:22.327Z,16.97
2023-03-21T19:41:50.164Z,17.26
2023-03-21T19:44:17.096Z,17.30
2023-03-21T19:46:43.740Z,17.51
2023-03-21T19:49:11.090Z,17.42
2023-03-21T19:51:37.720Z,17.49
2023-03-21T19:54:06.058Z,16.92
2023-03-21T19:56:34.529Z,16.89
2023-03-21T19:59:02.996Z,16.83
2023-03-21T20:16:33.683Z,17.36
2023-03-21T20:19:00.975Z,17.19
2023-03-21T20:21:34.082Z,17.01
2023-03-21T20:24:07.077Z,16.98
2023-03-21T20:26:34.317Z,16.98
2023-03-21T20:29:37.311Z,16.95
2023-03-21T20:31:47.643Z,16.90
2023-03-21T20:34:14.288Z,16.85
2023-03-21T20:36:43.339Z,16.76
2023-03-21T20:39:11.169Z,16.80
2023-03-21T20:41:38.169Z,16.56
2023-03-21T20:46:51.779Z,16.51
2023-03-21T20:49:20.076Z,16.45
2023-03-21T20:52:49.330Z,16.60
2023-03-21T20:54:35.113Z,16.54
2023-03-21T20:57:02.639Z,16.58
2023-03-21T20:59:29.751Z,16.47
2023-03-21T21:01:57.627Z,16.53
2023-03-21T21:04:46.730Z,16.52
2023-03-21T21:07:16.495Z,16.46
2023-03-21T21:09:44.753Z,16.51
2023-03-21T21:12:12.924Z,16.54
2023-03-21T21:14:39.959Z,16.63
2023-03-21T21:17:26.697Z,16.51
2023-03-21T21:19:54.545Z,16.42
2023-03-21T21:22:21.077Z,16.33
2023-03-21T21:24:48.028Z,16.20
2023-03-21T21:27:14.714Z,16.09
2023-03-21T21:29:43.320Z,16.01
2023-03-21T21:32:11.291Z,15.97
2023-03-21T21:34:38.392Z,15.62
2023-03-21T21:37:05.227Z,15.70
2023-03-21T21:39:37.905Z,15.69
2023-03-21T21:42:05.374Z,15.70
2023-03-21T21:44:33.118Z,15.74
2023-03-21T21:46:59.822Z,15.75
2023-03-21T21:49:28.024Z,15.66
2023-03-21T21:51:56.268Z,16.15
2023-03-21T21:54:22.898Z,16.12
2023-03-21T21:56:54.153Z,15.62
2023-03-21T21:59:24.429Z,15.25
2023-03-21T22:01:51.495Z,15.26
2023-03-21T22:04:24.853Z,15.37
2023-03-21T22:06:51.394Z,15.33
2023-03-21T22:09:17.944Z,15.26
2023-03-21T22:11:44.662Z,15.44
2023-03-21T22:14:11.207Z,15.43
2023-03-21T22:16:37.836Z,15.37
2023-03-21T22:19:04.569Z,15.10
2023-03-21T22:21:31.156Z,15.04
2023-03-21T22:23:57.849Z,14.89
2023-03-21T22:26:25.360Z,14.80
2023-03-21T22:28:51.968Z,14.89
2023-03-21T22:31:18.912Z,14.60
2023-03-21T22:33:46.026Z,14.87
2023-03-21T22:36:13.028Z,15.02
2023-03-21T22:38:41.874Z,14.74
2023-03-21T22:41:08.642Z,14.82
2023-03-21T22:43:35.324Z,15.21
2023-03-21T22:46:03.800Z,15.15
2023-03-21T22:48:31.109Z,15.24
2023-03-21T22:50:59.048Z,15.38
2023-03-21T22:53:26.007Z,15.11
2023-03-21T22:55:52.810Z,14.97
2023-03-21T22:58:19.355Z,14.85
2023-03-21T23:00:47.279Z,14.99
2023-03-21T23:03:16.828Z,14.98
2023-03-21T23:05:44.990Z,14.59
2023-03-21T23:08:12.251Z,14.11
2023-03-21T23:10:40.448Z,14.02
2023-03-21T23:13:07.214Z,14.04
2023-03-21T23:15:34.059Z,13.84
2023-03-21T23:18:00.868Z,13.82
2023-03-21T23:20:27.450Z,13.97
2023-03-21T23:22:54.086Z,14.04
2023-03-21T23:25:20.784Z,14.52
2023-03-21T23:27:48.081Z,14.78
2023-03-21T23:30:15.056Z,14.52
2023-03-21T23:32:42.330Z,14.09
2023-03-21T23:35:09.594Z,14.02
2023-03-21T23:37:36.347Z,14.01
2023-03-21T23:40:06.408Z,14.19
2023-03-21T23:42:34.279Z,14.24
2023-03-21T23:45:01.269Z,14.73
2023-03-21T23:47:28.256Z,14.63
2023-03-21T23:49:54.975Z,14.63
2023-03-21T23:52:21.865Z,14.67
2023-03-21T23:54:48.669Z,14.51
2023-03-21T23:57:16.814Z,14.21
2023-03-21T23:59:43.804Z,13.96
